Richland, Mississippi
Current Conditions -  °F | °C
As of 4:54 PM on Monday 22 Dec 2014 (Local Time) from KJAN Reporting Station
Broken Clouds Broken Clouds  
Wind Chill: 17°   Ceiling: 1000
Heat Index: 17°   Visibility: 8mi
Dew Point: 16°   Wind: 8mph
Humidity: 93%   Direction: 170°S
Pressure: 29.67"   Gusts: NA
Location:  32.2326°N, 90.165°W
Report Text: KJAN 222254Z 17007KT 8SM BKN010 17/16 A2967 RMK AO2 SLP044 T01670156
Loading
Personal Weather Stations






























Interactive Weather Map New forecast layout! Learn more

10-Day Weather Forecast

Advertisements
Track Severe Weather on mobile